createdAt,value
2018-03-18T00:08:20.503Z,18.2
2018-03-18T00:18:19.777Z,18.1
2018-03-18T00:28:19.016Z,18.1
2018-03-18T00:38:18.373Z,18.1
2018-03-18T00:48:17.468Z,18.1
2018-03-18T00:58:16.918Z,18.1
2018-03-18T01:08:15.971Z,18
2018-03-18T01:18:14.864Z,17.9
2018-03-18T01:28:14.393Z,17.9
2018-03-18T01:38:13.645Z,17.9
2018-03-18T01:48:12.816Z,17.9
2018-03-18T01:58:12.109Z,17.9
2018-03-18T02:08:11.327Z,17.9
2018-03-18T02:18:10.231Z,17.9
2018-03-18T02:28:09.307Z,17.9
2018-03-18T02:38:09.062Z,17.9
2018-03-18T02:48:07.979Z,17.9
2018-03-18T02:58:07.187Z,17.9
2018-03-18T03:08:06.487Z,17.9
2018-03-18T03:18:05.742Z,18
2018-03-18T03:28:04.611Z,18
2018-03-18T03:38:04.113Z,17.9
2018-03-18T03:48:03.550Z,17.9
2018-03-18T03:58:02.477Z,17.9
2018-03-18T04:08:01.808Z,17.9
2018-03-18T04:18:01.167Z,17.9
2018-03-18T04:27:59.930Z,17.9
2018-03-18T04:37:59.896Z,18
2018-03-18T04:47:58.422Z,18.1
2018-03-18T04:57:57.610Z,18.1
2018-03-18T05:07:56.997Z,17.5
2018-03-18T05:17:56.192Z,17.3
2018-03-18T05:27:55.137Z,17.4
2018-03-18T05:37:54.501Z,17.1
2018-03-18T05:47:53.598Z,16.9
2018-03-18T05:57:52.741Z,16.6
2018-03-18T06:07:52.225Z,16.6
2018-03-18T06:17:51.228Z,16.6
2018-03-18T06:27:50.954Z,16
2018-03-18T06:37:49.635Z,15.4
2018-03-18T06:47:49.289Z,14.6
2018-03-18T06:57:47.996Z,13.8
2018-03-18T07:07:47.560Z,13.4
2018-03-18T07:17:46.645Z,13.1
2018-03-18T07:27:45.741Z,12.8
2018-03-18T07:37:45.096Z,12.6
2018-03-18T07:47:44.053Z,12.5
2018-03-18T07:57:43.265Z,12.4
2018-03-18T08:07:42.401Z,12.5
2018-03-18T08:17:41.927Z,12.4
2018-03-18T08:27:41.163Z,12.3
2018-03-18T08:37:40.161Z,12.1
2018-03-18T08:47:39.647Z,12
2018-03-18T08:57:38.864Z,11.9
2018-03-18T09:07:38.105Z,11.7
2018-03-18T09:17:37.081Z,12
2018-03-18T09:27:36.261Z,12.3
2018-03-18T09:37:35.391Z,12.9
2018-03-18T09:47:34.592Z,13.1
2018-03-18T09:57:33.939Z,12.8
2018-03-18T10:07:33.298Z,12.5
2018-03-18T10:17:32.829Z,12.1
2018-03-18T10:27:31.488Z,11.9
2018-03-18T10:37:31.272Z,11.9
2018-03-18T10:47:30.029Z,11.6
2018-03-18T10:57:29.413Z,11.6
2018-03-18T11:07:28.633Z,11.6
2018-03-18T11:17:27.600Z,11.6
2018-03-18T11:27:26.827Z,11.5
2018-03-18T11:37:26.369Z,11.6
2018-03-18T11:47:25.578Z,11.6
2018-03-18T11:57:24.600Z,11.8
2018-03-18T12:07:23.564Z,11.7
2018-03-18T12:17:23.312Z,11.8
2018-03-18T12:27:22.457Z,11.9
2018-03-18T12:37:21.339Z,12.2
2018-03-18T12:47:20.357Z,12.4
2018-03-18T12:57:19.672Z,12.1
2018-03-18T13:07:18.729Z,11.9
2018-03-18T13:17:18.519Z,12
2018-03-18T13:27:17.205Z,11.9
2018-03-18T13:37:16.309Z,11.8
2018-03-18T13:47:15.612Z,11.6
2018-03-18T13:57:14.744Z,11.5
2018-03-18T14:07:14.281Z,11.7
2018-03-18T14:17:13.379Z,12.1
2018-03-18T14:27:12.625Z,12.4
2018-03-18T14:37:11.561Z,12.4
2018-03-18T14:47:10.846Z,12.3
2018-03-18T14:57:10.487Z,12.1
2018-03-18T15:07:09.492Z,12.1
2018-03-18T15:17:08.670Z,12.3
2018-03-18T15:27:08.201Z,12.2
2018-03-18T15:37:07.068Z,12.1
2018-03-18T15:47:06.278Z,11.6
2018-03-18T15:57:05.824Z,11.4
2018-03-18T16:07:04.413Z,11.6
2018-03-18T16:17:03.794Z,11.6
2018-03-18T16:27:03.766Z,11.4
2018-03-18T16:37:02.917Z,11.4
2018-03-18T16:47:01.785Z,12.1
2018-03-18T16:57:00.528Z,12.3
2018-03-18T17:07:00.357Z,12.4
2018-03-18T17:16:59.158Z,12.4
2018-03-18T17:26:58.099Z,12.6
2018-03-18T17:36:57.620Z,12.6
2018-03-18T17:46:56.673Z,12.6
2018-03-18T17:56:55.923Z,12.5
2018-03-18T18:06:55.312Z,12.5
2018-03-18T18:16:54.527Z,12.6
2018-03-18T18:26:53.556Z,12.5
2018-03-18T18:36:52.891Z,12.4
2018-03-18T18:46:52.068Z,12.3
2018-03-18T18:56:51.318Z,12.3
2018-03-18T19:06:50.579Z,12.3
2018-03-18T19:16:49.828Z,12.3
2018-03-18T19:26:49.482Z,12.3
2018-03-18T19:36:47.954Z,12.2
2018-03-18T19:46:47.174Z,11.9
2018-03-18T19:56:46.686Z,11.9
2018-03-18T20:06:45.941Z,11.9
2018-03-18T20:16:44.830Z,11.9
2018-03-18T20:26:44.641Z,11.9
2018-03-18T20:36:43.574Z,11.9
2018-03-18T20:46:43.429Z,11.8
2018-03-18T20:56:41.586Z,12
2018-03-18T21:06:41.104Z,12.1
2018-03-18T21:16:40.006Z,12.1
2018-03-18T21:26:39.479Z,12.1
2018-03-18T21:36:38.403Z,11.9
2018-03-18T21:46:37.854Z,11.8
2018-03-18T21:56:37.132Z,11.8
2018-03-18T22:06:36.254Z,11.8
2018-03-18T22:16:35.856Z,11.9
2018-03-18T22:26:34.782Z,11.9
2018-03-18T22:36:33.644Z,12
2018-03-18T22:46:33.383Z,12.1
2018-03-18T22:56:32.198Z,12.1
2018-03-18T23:06:31.527Z,12
2018-03-18T23:16:30.683Z,11.9
2018-03-18T23:26:30.008Z,11.9
2018-03-18T23:36:29.512Z,11.9
2018-03-18T23:46:28.767Z,12
2018-03-18T23:56:27.640Z,12.1
